createdAt,value
2018-09-25T00:00:09.169Z,7.90
2018-09-25T00:05:16.484Z,7.90
2018-09-25T00:07:50.200Z,7.80
2018-09-25T00:10:24.037Z,7.60
2018-09-25T00:12:58.048Z,7.70
2018-09-25T00:15:31.599Z,7.70
2018-09-25T00:18:05.323Z,7.80
2018-09-25T00:20:38.946Z,7.70
2018-09-25T00:23:12.609Z,7.60
2018-09-25T00:25:46.148Z,7.60
2018-09-25T00:28:19.764Z,7.60
2018-09-25T00:30:53.528Z,7.60
2018-09-25T00:33:27.397Z,7.40
2018-09-25T00:36:01.161Z,7.30
2018-09-25T00:38:34.966Z,7.30
2018-09-25T00:41:08.770Z,7.40
2018-09-25T00:43:42.627Z,7.50
2018-09-25T00:46:16.476Z,7.40
2018-09-25T00:48:50.405Z,7.30
2018-09-25T00:51:24.163Z,7.30
2018-09-25T00:53:57.717Z,7.20
2018-09-25T00:56:31.275Z,6.30
2018-09-25T00:59:04.864Z,7.40
2018-09-25T01:01:38.687Z,6.60
2018-09-25T01:04:12.559Z,7.10
2018-09-25T01:06:46.361Z,7.10
2018-09-25T01:09:20.198Z,6.80
2018-09-25T01:11:53.949Z,6.80
2018-09-25T01:14:27.764Z,6.80
2018-09-25T01:17:01.453Z,6.80
2018-09-25T01:19:35.085Z,7.00
2018-09-25T01:22:08.874Z,7.00
2018-09-25T01:24:42.659Z,7.10
2018-09-25T01:27:16.596Z,7.00
2018-09-25T01:29:50.365Z,7.00
2018-09-25T01:32:24.412Z,7.00
2018-09-25T01:34:58.087Z,7.10
2018-09-25T01:37:31.865Z,7.00
2018-09-25T01:40:05.483Z,7.00
2018-09-25T01:42:39.467Z,7.10
2018-09-25T01:45:13.354Z,7.10
2018-09-25T01:47:47.015Z,6.90
2018-09-25T01:50:20.730Z,6.90
2018-09-25T01:52:54.519Z,6.90
2018-09-25T01:55:28.275Z,6.90
2018-09-25T01:58:02.055Z,7.00
2018-09-25T02:00:35.839Z,7.00
2018-09-25T02:03:09.626Z,7.10
2018-09-25T02:05:43.482Z,7.00
2018-09-25T02:08:17.176Z,6.90
2018-09-25T02:10:51.012Z,6.70
2018-09-25T02:13:24.777Z,6.80
2018-09-25T02:18:31.938Z,6.90
2018-09-25T02:21:05.675Z,7.00
2018-09-25T02:23:39.358Z,7.00
2018-09-25T02:26:13.135Z,7.00
2018-09-25T02:28:46.893Z,7.00
2018-09-25T02:31:20.631Z,7.10
2018-09-25T02:33:54.232Z,7.10
2018-09-25T02:36:27.908Z,7.00
2018-09-25T02:39:01.675Z,7.00
2018-09-25T02:41:35.468Z,6.90
2018-09-25T02:44:09.171Z,7.00
2018-09-25T02:46:42.954Z,6.90
2018-09-25T02:49:16.709Z,7.00
2018-09-25T02:51:50.576Z,6.90
2018-09-25T02:54:24.316Z,6.90
2018-09-25T02:56:57.923Z,6.90
2018-09-25T02:59:31.718Z,6.90
2018-09-25T03:02:05.264Z,6.90
2018-09-25T03:04:39.088Z,6.90
2018-09-25T03:07:12.771Z,6.80
2018-09-25T03:09:46.587Z,6.90
2018-09-25T03:12:20.359Z,6.90
2018-09-25T03:14:54.095Z,7.00
2018-09-25T03:22:35.228Z,6.80
2018-09-25T03:25:08.992Z,6.80
2018-09-25T03:27:42.892Z,6.90
2018-09-25T03:30:16.637Z,6.90
2018-09-25T03:32:50.488Z,7.10
2018-09-25T03:35:24.366Z,7.10
2018-09-25T03:37:58.295Z,7.00
2018-09-25T03:40:32.020Z,7.20
2018-09-25T03:43:05.693Z,7.20
2018-09-25T03:45:39.411Z,7.20
2018-09-25T03:48:13.030Z,7.10
2018-09-25T03:50:46.592Z,7.00
2018-09-25T03:53:20.397Z,7.10
2018-09-25T03:55:54.178Z,7.10
2018-09-25T03:59:31.033Z,7.20
2018-09-25T04:02:04.687Z,7.30
2018-09-25T04:04:38.493Z,7.10
2018-09-25T04:07:12.224Z,7.20
2018-09-25T04:09:46.093Z,7.10
2018-09-25T04:12:19.839Z,7.00
2018-09-25T04:14:53.618Z,7.00
2018-09-25T04:17:27.377Z,7.10
2018-09-25T04:20:01.138Z,7.00
2018-09-25T04:22:34.936Z,7.20
2018-09-25T04:25:08.636Z,7.30
2018-09-25T04:27:42.246Z,7.20
2018-09-25T04:30:15.981Z,7.30
2018-09-25T04:32:49.752Z,7.20
2018-09-25T04:35:23.460Z,7.20
2018-09-25T04:37:57.177Z,7.20
2018-09-25T04:40:30.851Z,7.20
2018-09-25T04:43:04.587Z,7.10
2018-09-25T04:45:38.366Z,7.00
2018-09-25T04:48:12.023Z,7.00
2018-09-25T04:55:52.946Z,6.90
2018-09-25T04:58:26.637Z,7.00
2018-09-25T05:01:00.497Z,7.00
2018-09-25T05:03:34.329Z,7.00
2018-09-25T05:06:08.088Z,6.90
2018-09-25T05:08:41.862Z,6.90
2018-09-25T05:11:15.703Z,7.90
2018-09-25T05:13:49.358Z,6.80
2018-09-25T05:16:23.283Z,6.70
2018-09-25T05:18:57.047Z,6.70
2018-09-25T05:21:30.873Z,6.70
2018-09-25T05:24:04.671Z,6.60
2018-09-25T05:26:38.449Z,6.70
2018-09-25T05:29:12.275Z,6.70
2018-09-25T05:31:45.951Z,6.70
2018-09-25T05:34:19.659Z,6.70
2018-09-25T05:36:53.465Z,6.80
2018-09-25T05:39:27.147Z,6.70
2018-09-25T05:42:01.002Z,6.60
2018-09-25T05:44:34.823Z,6.50
2018-09-25T05:47:08.523Z,6.30
2018-09-25T05:49:42.218Z,6.50
2018-09-25T05:52:16.128Z,6.50
2018-09-25T06:02:30.640Z,6.60
2018-09-25T06:05:04.317Z,6.70
2018-09-25T06:07:38.135Z,6.90
2018-09-25T06:10:11.913Z,6.90
2018-09-25T06:12:45.645Z,6.90
2018-09-25T06:15:19.243Z,6.90
2018-09-25T06:17:52.988Z,7.00
2018-09-25T06:20:26.829Z,7.10
2018-09-25T06:23:00.766Z,7.10
2018-09-25T06:25:34.399Z,7.20
2018-09-25T06:28:08.092Z,7.60
2018-09-25T06:30:41.985Z,7.30
2018-09-25T06:33:15.836Z,7.30
2018-09-25T06:35:49.469Z,7.20
2018-09-25T06:38:22.983Z,7.30
2018-09-25T06:40:56.894Z,7.30
2018-09-25T06:43:30.584Z,7.40
2018-09-25T06:46:04.409Z,7.40
2018-09-25T06:48:38.236Z,7.50
2018-09-25T06:51:11.823Z,7.70
2018-09-25T06:53:45.531Z,7.70
2018-09-25T06:56:19.294Z,8.00
2018-09-25T06:58:53.042Z,8.00
2018-09-25T07:01:26.826Z,8.30
2018-09-25T07:04:00.632Z,8.50
2018-09-25T07:06:34.423Z,8.70
2018-09-25T07:09:08.218Z,8.70
2018-09-25T07:11:41.989Z,9.10
2018-09-25T07:14:15.619Z,9.50
2018-09-25T07:16:49.441Z,9.80
2018-09-25T07:19:23.160Z,10.10
2018-09-25T07:21:56.896Z,10.50
2018-09-25T07:24:30.531Z,11.10
2018-09-25T07:27:04.118Z,11.40
2018-09-25T07:29:37.820Z,11.80
2018-09-25T07:32:11.760Z,11.80
2018-09-25T07:39:52.492Z,12.10
2018-09-25T07:42:26.347Z,12.30
2018-09-25T07:45:00.111Z,12.50
2018-09-25T07:47:33.885Z,12.80
2018-09-25T07:50:07.543Z,13.00
2018-09-25T07:52:41.237Z,13.10
2018-09-25T07:55:14.832Z,13.30
2018-09-25T07:57:48.404Z,13.50
2018-09-25T08:00:22.271Z,13.60
2018-09-25T08:02:55.967Z,13.70
2018-09-25T08:05:29.728Z,13.80
2018-09-25T08:08:03.577Z,13.80
2018-09-25T08:10:37.339Z,13.90
2018-09-25T08:13:10.922Z,13.70
2018-09-25T08:15:44.636Z,13.90
2018-09-25T08:18:18.301Z,14.00
2018-09-25T08:20:51.956Z,14.20
2018-09-25T08:23:25.895Z,14.30
2018-09-25T08:25:59.848Z,14.40
2018-09-25T08:28:33.636Z,14.50
2018-09-25T08:31:07.354Z,14.60
2018-09-25T08:33:41.306Z,14.50
2018-09-25T08:36:15.105Z,14.60
2018-09-25T08:38:49.035Z,14.80
2018-09-25T08:41:22.733Z,14.70
2018-09-25T08:46:30.047Z,14.60
2018-09-25T08:49:04.072Z,14.60
2018-09-25T08:51:37.778Z,14.90
2018-09-25T08:54:11.534Z,15.00
2018-09-25T08:56:45.320Z,15.00
2018-09-25T08:59:19.053Z,15.10
2018-09-25T09:01:52.753Z,15.00
2018-09-25T09:04:26.536Z,14.70
2018-09-25T09:07:00.452Z,14.80
2018-09-25T09:09:35.104Z,14.80
2018-09-25T09:12:08.819Z,14.80
2018-09-25T09:14:42.457Z,15.00
2018-09-25T09:17:16.171Z,14.90
2018-09-25T09:19:49.981Z,14.70
2018-09-25T09:22:23.664Z,14.50
2018-09-25T09:24:57.268Z,14.60
2018-09-25T09:27:31.058Z,14.60
2018-09-25T09:30:04.944Z,14.70
2018-09-25T09:32:38.893Z,14.70
2018-09-25T09:35:12.661Z,14.70
2018-09-25T09:37:46.302Z,14.70
2018-09-25T09:40:20.088Z,14.80
2018-09-25T09:42:53.867Z,15.10
2018-09-25T09:45:27.520Z,15.30
2018-09-25T09:50:34.901Z,15.40
2018-09-25T09:53:08.544Z,15.50
2018-09-25T09:55:42.305Z,15.40
2018-09-25T09:58:15.948Z,15.20
2018-09-25T10:00:49.886Z,15.20
2018-09-25T10:03:23.622Z,15.10
2018-09-25T10:05:57.349Z,15.20
2018-09-25T10:08:31.144Z,15.10
2018-09-25T10:11:04.833Z,15.00
2018-09-25T10:13:38.483Z,15.00
2018-09-25T10:16:12.164Z,15.30
2018-09-25T10:18:45.967Z,15.50
2018-09-25T10:21:19.617Z,15.20
2018-09-25T10:23:53.307Z,15.10
2018-09-25T10:26:27.003Z,15.10
2018-09-25T10:29:00.691Z,15.10
2018-09-25T10:31:34.508Z,15.30
2018-09-25T10:34:08.229Z,15.60
2018-09-25T10:36:41.853Z,15.80
2018-09-25T10:39:15.700Z,15.90
2018-09-25T10:41:49.540Z,15.70
2018-09-25T10:44:23.358Z,15.70
2018-09-25T10:46:57.012Z,15.50
2018-09-25T10:49:30.720Z,15.60
2018-09-25T10:52:04.557Z,15.70
2018-09-25T10:54:38.339Z,15.90
2018-09-25T10:57:12.093Z,15.90
2018-09-25T10:59:46.018Z,15.80
2018-09-25T11:02:19.666Z,15.70
2018-09-25T11:04:53.544Z,15.50
2018-09-25T11:07:27.377Z,15.50
2018-09-25T11:10:01.178Z,15.50
2018-09-25T11:12:34.987Z,15.60
2018-09-25T11:15:08.655Z,15.60
2018-09-25T11:17:42.411Z,15.60
2018-09-25T11:20:15.926Z,15.60
2018-09-25T11:22:49.704Z,15.50
2018-09-25T11:25:23.519Z,15.50
2018-09-25T11:27:57.206Z,15.40
2018-09-25T11:30:30.966Z,15.60
2018-09-25T11:33:04.865Z,15.60
2018-09-25T11:35:38.641Z,15.60
2018-09-25T11:38:12.519Z,15.60
2018-09-25T11:40:46.286Z,15.80
2018-09-25T11:43:19.930Z,15.80
2018-09-25T11:45:53.694Z,15.90
2018-09-25T11:48:27.357Z,16.00
2018-09-25T11:51:01.058Z,15.80
2018-09-25T11:53:34.786Z,15.90
2018-09-25T11:56:08.526Z,16.30
2018-09-25T11:58:42.344Z,15.70
2018-09-25T12:03:49.510Z,15.30
2018-09-25T12:06:23.149Z,15.30
2018-09-25T12:08:56.933Z,15.30
2018-09-25T12:11:30.792Z,15.40
2018-09-25T12:14:04.396Z,15.60
2018-09-25T12:16:37.935Z,15.80
2018-09-25T12:19:11.766Z,15.70
2018-09-25T12:21:45.460Z,15.70
2018-09-25T12:24:19.181Z,15.60
2018-09-25T12:26:53.021Z,15.70
2018-09-25T12:29:26.789Z,15.50
2018-09-25T12:32:00.608Z,15.60
2018-09-25T12:34:34.437Z,15.60
2018-09-25T12:37:08.317Z,15.70
2018-09-25T12:39:41.965Z,15.80
2018-09-25T12:42:15.652Z,15.70
2018-09-25T12:44:49.487Z,15.80
2018-09-25T12:47:23.286Z,15.70
2018-09-25T12:49:57.029Z,15.60
2018-09-25T12:52:30.780Z,15.60
2018-09-25T12:55:04.540Z,15.50
2018-09-25T12:57:38.399Z,15.60
2018-09-25T13:00:12.579Z,15.60
2018-09-25T13:02:46.214Z,15.70
2018-09-25T13:10:27.097Z,15.30
2018-09-25T13:13:00.879Z,15.40
2018-09-25T13:15:34.448Z,15.50
2018-09-25T13:18:08.060Z,15.50
2018-09-25T13:20:41.832Z,15.60
2018-09-25T13:23:15.441Z,15.50
2018-09-25T13:25:49.219Z,15.60
2018-09-25T13:28:22.948Z,15.50
2018-09-25T13:30:56.768Z,15.50
2018-09-25T13:33:30.411Z,15.50
2018-09-25T13:36:04.135Z,15.40
2018-09-25T13:38:37.897Z,15.30
2018-09-25T13:41:11.872Z,15.20
2018-09-25T13:43:45.707Z,15.30
2018-09-25T13:46:19.477Z,15.30
2018-09-25T13:48:53.246Z,15.20
2018-09-25T13:51:27.127Z,15.20
2018-09-25T13:54:00.896Z,15.30
2018-09-25T13:56:34.677Z,15.30
2018-09-25T13:59:08.359Z,15.20
2018-09-25T14:01:42.110Z,15.10
2018-09-25T14:04:15.904Z,15.20
2018-09-25T14:06:49.440Z,15.10
2018-09-25T14:09:23.030Z,15.00
2018-09-25T14:14:30.298Z,15.10
2018-09-25T14:17:04.003Z,15.10
2018-09-25T14:19:37.767Z,15.10
2018-09-25T14:22:11.544Z,15.10
2018-09-25T14:24:45.468Z,15.10
2018-09-25T14:27:19.060Z,15.20
2018-09-25T14:29:52.760Z,15.30
2018-09-25T14:32:26.548Z,15.30
2018-09-25T14:35:00.293Z,15.20
2018-09-25T14:37:34.129Z,15.10
2018-09-25T14:40:07.844Z,15.10
2018-09-25T14:42:41.736Z,14.90
2018-09-25T14:45:15.448Z,14.90
2018-09-25T14:47:49.394Z,14.90
2018-09-25T14:50:23.091Z,14.80
2018-09-25T14:52:56.929Z,14.60
2018-09-25T14:55:30.722Z,14.50
2018-09-25T14:58:04.445Z,14.50
2018-09-25T15:00:38.167Z,14.70
2018-09-25T15:03:11.770Z,14.80
2018-09-25T15:05:45.553Z,14.70
2018-09-25T15:08:19.537Z,14.70
2018-09-25T15:10:53.224Z,14.70
2018-09-25T15:13:27.008Z,14.50
2018-09-25T15:16:00.822Z,14.50
2018-09-25T15:18:34.459Z,14.50
2018-09-25T15:21:08.171Z,14.50
2018-09-25T15:23:42.140Z,14.60
2018-09-25T15:26:16.062Z,14.70
2018-09-25T15:28:49.876Z,14.70
2018-09-25T15:31:23.628Z,14.60
2018-09-25T15:33:57.317Z,14.40
2018-09-25T15:36:30.835Z,14.30
2018-09-25T15:39:04.424Z,14.40
2018-09-25T15:49:18.768Z,14.50
2018-09-25T15:51:52.326Z,14.40
2018-09-25T15:54:26.137Z,14.20
2018-09-25T15:56:59.840Z,14.20
2018-09-25T15:59:33.555Z,14.10
2018-09-25T16:02:07.361Z,14.20
2018-09-25T16:04:41.136Z,14.30
2018-09-25T16:07:14.816Z,14.30
2018-09-25T16:09:48.615Z,14.30
2018-09-25T16:12:22.272Z,14.20
2018-09-25T16:14:56.004Z,14.20
2018-09-25T16:17:29.675Z,14.10
2018-09-25T16:20:03.339Z,14.10
2018-09-25T16:22:37.080Z,14.10
2018-09-25T16:25:11.024Z,13.90
2018-09-25T16:30:18.306Z,13.90
2018-09-25T16:32:52.201Z,13.80
2018-09-25T16:35:25.878Z,13.70
2018-09-25T16:37:59.746Z,13.60
2018-09-25T16:40:33.596Z,11.40
2018-09-25T16:43:07.301Z,13.60
2018-09-25T16:45:41.103Z,13.50
2018-09-25T16:53:22.362Z,13.30
2018-09-25T16:55:56.212Z,13.20
2018-09-25T16:58:29.933Z,13.20
2018-09-25T17:01:03.745Z,13.20
2018-09-25T17:03:38.527Z,13.10
2018-09-25T17:06:12.305Z,13.10
2018-09-25T17:08:46.151Z,13.10
2018-09-25T17:11:19.932Z,13.00
2018-09-25T17:13:53.565Z,13.10
2018-09-25T17:16:27.243Z,13.10
2018-09-25T17:19:00.763Z,13.10
2018-09-25T17:21:34.489Z,13.00
2018-09-25T17:26:42.066Z,13.00
2018-09-25T17:29:16.054Z,12.90
2018-09-25T17:31:49.899Z,12.70
2018-09-25T17:34:23.731Z,12.60
2018-09-25T17:36:57.432Z,12.50
2018-09-25T17:39:31.106Z,12.50
2018-09-25T17:42:04.849Z,12.40
2018-09-25T17:44:38.650Z,12.30
2018-09-25T17:47:12.553Z,12.30
2018-09-25T17:49:46.478Z,12.40
2018-09-25T17:52:20.163Z,12.60
2018-09-25T17:54:53.882Z,12.20
2018-09-25T17:57:27.732Z,12.10
2018-09-25T18:00:01.435Z,12.00
2018-09-25T18:02:35.252Z,11.90
2018-09-25T18:05:09.075Z,11.80
2018-09-25T18:07:42.908Z,11.80
2018-09-25T18:10:16.598Z,11.60
2018-09-25T18:12:50.323Z,11.50
2018-09-25T18:15:24.009Z,11.30
2018-09-25T18:17:57.674Z,11.30
2018-09-25T18:20:31.380Z,11.30
2018-09-25T18:23:05.118Z,11.20
2018-09-25T18:25:38.999Z,11.10
2018-09-25T18:28:12.802Z,11.00
2018-09-25T18:33:20.143Z,10.80
2018-09-25T18:35:53.699Z,10.10
2018-09-25T18:41:01.322Z,10.90
2018-09-25T18:43:34.997Z,10.80
2018-09-25T18:46:08.596Z,10.70
2018-09-25T18:48:42.355Z,10.80
2018-09-25T18:51:16.131Z,10.50
2018-09-25T18:53:50.082Z,10.40
2018-09-25T18:56:23.880Z,10.40
2018-09-25T18:58:57.595Z,10.40
2018-09-25T19:01:31.366Z,10.20
2018-09-25T19:04:05.096Z,10.20
2018-09-25T19:06:38.923Z,10.20
2018-09-25T19:09:13.853Z,10.00
2018-09-25T19:11:47.709Z,10.00
2018-09-25T19:14:21.480Z,10.00
2018-09-25T19:16:55.374Z,10.00
2018-09-25T19:19:29.146Z,10.00
2018-09-25T19:22:02.954Z,9.90
2018-09-25T19:24:36.627Z,9.80
2018-09-25T19:27:10.397Z,9.80
2018-09-25T19:29:44.220Z,9.90
2018-09-25T19:32:18.240Z,9.90
2018-09-25T19:34:51.859Z,9.50
2018-09-25T19:40:00.249Z,9.60
2018-09-25T19:47:41.160Z,9.60
2018-09-25T19:50:14.933Z,9.60
2018-09-25T19:52:48.625Z,9.50
2018-09-25T19:55:22.356Z,9.60
2018-09-25T19:57:56.079Z,9.50
2018-09-25T20:00:29.879Z,9.50
2018-09-25T20:03:03.715Z,9.30
2018-09-25T20:05:37.421Z,9.30
2018-09-25T20:08:11.386Z,9.30
2018-09-25T20:13:18.626Z,9.20
2018-09-25T20:15:52.351Z,9.10
2018-09-25T20:18:26.519Z,9.10
2018-09-25T20:21:00.162Z,9.20
2018-09-25T20:23:34.062Z,9.10
2018-09-25T20:26:07.764Z,9.00
2018-09-25T20:28:41.803Z,9.00
2018-09-25T20:34:20.219Z,9.00
2018-09-25T20:36:54.046Z,8.90
2018-09-25T20:39:28.068Z,8.80
2018-09-25T20:42:02.060Z,8.80
2018-09-25T20:47:09.283Z,8.80
2018-09-25T20:49:43.292Z,8.90
2018-09-25T20:52:17.211Z,8.80
2018-09-25T20:54:51.160Z,8.80
2018-09-25T21:05:05.790Z,8.90
2018-09-25T21:07:39.712Z,8.90
2018-09-25T21:10:13.848Z,9.00
2018-09-25T21:12:47.722Z,8.90
2018-09-25T21:15:21.501Z,8.80
2018-09-25T21:17:55.302Z,9.10
2018-09-25T21:20:29.044Z,8.90
2018-09-25T21:23:04.017Z,8.90
2018-09-25T21:25:37.879Z,8.80
2018-09-25T21:28:11.605Z,8.90
2018-09-25T21:30:45.329Z,8.90
2018-09-25T21:33:19.364Z,8.80
2018-09-25T21:35:53.183Z,8.70
2018-09-25T21:38:27.894Z,8.90
2018-09-25T21:41:01.774Z,8.80
2018-09-25T21:46:09.180Z,8.50
2018-09-25T21:48:42.806Z,8.40
2018-09-25T21:51:16.765Z,8.40
2018-09-25T21:53:50.361Z,8.40
2018-09-25T21:56:24.139Z,8.40
2018-09-25T22:01:31.465Z,8.40
2018-09-25T22:04:05.150Z,8.40
2018-09-25T22:06:38.985Z,8.30
2018-09-25T22:09:13.048Z,8.30
2018-09-25T22:11:46.864Z,8.40
2018-09-25T22:14:20.570Z,8.30
2018-09-25T22:16:54.394Z,8.30
2018-09-25T22:19:28.259Z,8.20
2018-09-25T22:24:35.699Z,8.10
2018-09-25T22:27:09.586Z,8.20
2018-09-25T22:29:43.575Z,8.10
2018-09-25T22:32:20.436Z,8.10
2018-09-25T22:34:54.113Z,8.00
2018-09-25T22:37:28.057Z,7.90
2018-09-25T22:40:01.763Z,7.70
2018-09-25T22:42:35.706Z,7.70
2018-09-25T22:50:16.897Z,7.50
2018-09-25T22:52:50.686Z,7.50
2018-09-25T22:55:24.476Z,7.50
2018-09-25T22:57:58.282Z,7.50
2018-09-25T23:00:39.085Z,7.30
2018-09-25T23:03:12.897Z,7.20
2018-09-25T23:05:46.714Z,7.20
2018-09-25T23:08:20.543Z,7.20
2018-09-25T23:10:54.340Z,7.20
2018-09-25T23:13:27.920Z,7.30
2018-09-25T23:18:35.266Z,7.20
2018-09-25T23:21:09.101Z,7.30
2018-09-25T23:23:42.954Z,7.20
2018-09-25T23:26:16.711Z,7.10
2018-09-25T23:31:24.081Z,7.10
2018-09-25T23:33:57.793Z,7.10
2018-09-25T23:36:31.551Z,6.90
2018-09-25T23:39:09.311Z,6.90
2018-09-25T23:41:43.538Z,6.70
2018-09-25T23:44:17.699Z,6.50
2018-09-25T23:46:53.763Z,6.60
2018-09-25T23:49:26.785Z,6.60
2018-09-25T23:52:03.699Z,6.60
2018-09-25T23:54:40.227Z,6.80
2018-09-25T23:59:51.375Z,6.60
